sensor_id;sensor_type;location;lat;lon;timestamp;P1;durP1;ratioP1;P2;durP2;ratioP2
2211;SDS011;48849;48.758;9.158;2023-03-13T00:00:52;7.20;;;3.30;;
2211;SDS011;48849;48.758;9.158;2023-03-13T00:03:20;6.40;;;3.78;;
2211;SDS011;48849;48.758;9.158;2023-03-13T00:05:47;11.00;;;4.05;;
2211;SDS011;48849;48.758;9.158;2023-03-13T00:08:14;7.88;;;3.63;;
2211;SDS011;48849;48.758;9.158;2023-03-13T00:10:42;9.27;;;3.88;;
2211;SDS011;48849;48.758;9.158;2023-03-13T00:13:08;8.60;;;4.20;;
2211;SDS011;48849;48.758;9.158;2023-03-13T00:15:35;7.95;;;3.53;;
2211;SDS011;48849;48.758;9.158;2023-03-13T00:18:02;8.85;;;4.00;;
2211;SDS011;48849;48.758;9.158;2023-03-13T00:20:29;8.43;;;4.18;;
2211;SDS011;48849;48.758;9.158;2023-03-13T00:22:56;7.93;;;3.45;;
2211;SDS011;48849;48.758;9.158;2023-03-13T00:25:23;9.23;;;3.20;;
2211;SDS011;48849;48.758;9.158;2023-03-13T00:27:51;9.32;;;4.30;;
2211;SDS011;48849;48.758;9.158;2023-03-13T00:30:18;9.25;;;3.65;;
2211;SDS011;48849;48.758;9.158;2023-03-13T00:32:45;8.05;;;3.67;;
2211;SDS011;48849;48.758;9.158;2023-03-13T00:35:12;10.23;;;3.47;;
2211;SDS011;48849;48.758;9.158;2023-03-13T00:37:39;6.47;;;2.97;;
2211;SDS011;48849;48.758;9.158;2023-03-13T00:40:07;6.25;;;3.20;;
2211;SDS011;48849;48.758;9.158;2023-03-13T00:42:34;7.95;;;3.75;;
2211;SDS011;48849;48.758;9.158;2023-03-13T00:45:03;9.70;;;3.30;;
2211;SDS011;48849;48.758;9.158;2023-03-13T00:47:30;8.82;;;3.30;;
2211;SDS011;48849;48.758;9.158;2023-03-13T00:49:57;8.60;;;2.83;;
2211;SDS011;48849;48.758;9.158;2023-03-13T00:52:23;8.18;;;3.35;;
2211;SDS011;48849;48.758;9.158;2023-03-13T00:54:52;10.38;;;3.58;;
2211;SDS011;48849;48.758;9.158;2023-03-13T00:57:19;8.25;;;3.75;;
2211;SDS011;48849;48.758;9.158;2023-03-13T00:59:46;6.97;;;3.30;;
2211;SDS011;48849;48.758;9.158;2023-03-13T01:02:14;7.28;;;3.65;;
2211;SDS011;48849;48.758;9.158;2023-03-13T01:04:40;11.20;;;3.83;;
2211;SDS011;48849;48.758;9.158;2023-03-13T01:07:07;10.70;;;3.83;;
2211;SDS011;48849;48.758;9.158;2023-03-13T01:09:34;9.82;;;4.22;;
2211;SDS011;48849;48.758;9.158;2023-03-13T01:12:01;11.05;;;4.00;;
2211;SDS011;48849;48.758;9.158;2023-03-13T01:14:28;8.75;;;4.50;;
2211;SDS011;48849;48.758;9.158;2023-03-13T01:16:55;13.32;;;5.25;;
2211;SDS011;48849;48.758;9.158;2023-03-13T01:19:23;7.72;;;4.07;;
2211;SDS011;48849;48.758;9.158;2023-03-13T01:21:49;11.60;;;4.22;;
2211;SDS011;48849;48.758;9.158;2023-03-13T01:24:16;13.02;;;4.32;;
2211;SDS011;48849;48.758;9.158;2023-03-13T01:26:44;12.85;;;4.60;;
2211;SDS011;48849;48.758;9.158;2023-03-13T01:29:11;12.43;;;4.80;;
2211;SDS011;48849;48.758;9.158;2023-03-13T01:31:38;13.05;;;4.43;;
2211;SDS011;48849;48.758;9.158;2023-03-13T01:34:05;8.85;;;4.22;;
2211;SDS011;48849;48.758;9.158;2023-03-13T01:36:34;9.70;;;4.07;;
2211;SDS011;48849;48.758;9.158;2023-03-13T01:39:02;12.82;;;4.30;;
2211;SDS011;48849;48.758;9.158;2023-03-13T01:41:29;9.82;;;3.60;;
2211;SDS011;48849;48.758;9.158;2023-03-13T01:43:56;8.57;;;3.65;;
2211;SDS011;48849;48.758;9.158;2023-03-13T01:46:24;13.20;;;4.57;;
2211;SDS011;48849;48.758;9.158;2023-03-13T01:48:52;11.70;;;4.85;;
2211;SDS011;48849;48.758;9.158;2023-03-13T01:51:23;8.55;;;3.80;;
2211;SDS011;48849;48.758;9.158;2023-03-13T01:53:55;9.27;;;3.30;;
2211;SDS011;48849;48.758;9.158;2023-03-13T01:56:28;8.57;;;3.72;;
2211;SDS011;48849;48.758;9.158;2023-03-13T01:58:59;8.30;;;3.47;;
2211;SDS011;48849;48.758;9.158;2023-03-13T02:01:26;7.75;;;3.65;;
2211;SDS011;48849;48.758;9.158;2023-03-13T02:03:53;9.73;;;4.20;;
2211;SDS011;48849;48.758;9.158;2023-03-13T02:06:22;12.02;;;3.97;;
2211;SDS011;48849;48.758;9.158;2023-03-13T02:08:51;6.72;;;3.60;;
2211;SDS011;48849;48.758;9.158;2023-03-13T02:11:24;6.10;;;3.50;;
2211;SDS011;48849;48.758;9.158;2023-03-13T02:13:56;9.57;;;3.58;;
2211;SDS011;48849;48.758;9.158;2023-03-13T02:16:24;5.50;;;3.55;;
2211;SDS011;48849;48.758;9.158;2023-03-13T02:18:51;12.45;;;3.83;;
2211;SDS011;48849;48.758;9.158;2023-03-13T02:21:20;8.48;;;3.30;;
2211;SDS011;48849;48.758;9.158;2023-03-13T02:24:00;7.15;;;3.35;;
2211;SDS011;48849;48.758;9.158;2023-03-13T02:26:33;8.90;;;2.97;;
2211;SDS011;48849;48.758;9.158;2023-03-13T02:29:00;6.05;;;2.92;;
2211;SDS011;48849;48.758;9.158;2023-03-13T02:31:26;8.73;;;3.97;;
2211;SDS011;48849;48.758;9.158;2023-03-13T02:33:54;7.82;;;3.35;;
2211;SDS011;48849;48.758;9.158;2023-03-13T02:36:25;8.65;;;3.13;;
2211;SDS011;48849;48.758;9.158;2023-03-13T02:38:54;10.57;;;3.22;;
2211;SDS011;48849;48.758;9.158;2023-03-13T02:41:23;8.70;;;2.92;;
2211;SDS011;48849;48.758;9.158;2023-03-13T02:43:53;6.57;;;2.63;;
2211;SDS011;48849;48.758;9.158;2023-03-13T02:46:20;5.80;;;2.65;;
2211;SDS011;48849;48.758;9.158;2023-03-13T02:48:47;5.07;;;2.50;;
2211;SDS011;48849;48.758;9.158;2023-03-13T02:51:17;5.75;;;2.65;;
2211;SDS011;48849;48.758;9.158;2023-03-13T02:53:48;9.75;;;2.75;;
2211;SDS011;48849;48.758;9.158;2023-03-13T02:56:18;6.95;;;2.58;;
2211;SDS011;48849;48.758;9.158;2023-03-13T02:58:47;6.78;;;2.90;;
2211;SDS011;48849;48.758;9.158;2023-03-13T03:01:15;6.32;;;2.80;;
2211;SDS011;48849;48.758;9.158;2023-03-13T03:03:41;11.70;;;3.20;;
2211;SDS011;48849;48.758;9.158;2023-03-13T03:06:08;5.43;;;2.50;;
2211;SDS011;48849;48.758;9.158;2023-03-13T03:08:35;6.82;;;2.53;;
2211;SDS011;48849;48.758;9.158;2023-03-13T03:11:05;6.75;;;2.90;;
2211;SDS011;48849;48.758;9.158;2023-03-13T03:13:32;5.28;;;2.25;;
2211;SDS011;48849;48.758;9.158;2023-03-13T03:16:00;4.75;;;2.92;;
2211;SDS011;48849;48.758;9.158;2023-03-13T03:18:32;6.70;;;2.65;;
2211;SDS011;48849;48.758;9.158;2023-03-13T03:20:59;5.30;;;1.98;;
2211;SDS011;48849;48.758;9.158;2023-03-13T03:23:26;4.38;;;2.40;;
2211;SDS011;48849;48.758;9.158;2023-03-13T03:25:52;4.57;;;2.78;;
2211;SDS011;48849;48.758;9.158;2023-03-13T03:28:19;4.25;;;2.20;;
2211;SDS011;48849;48.758;9.158;2023-03-13T03:30:46;7.95;;;2.08;;
2211;SDS011;48849;48.758;9.158;2023-03-13T03:33:12;6.85;;;2.47;;
2211;SDS011;48849;48.758;9.158;2023-03-13T03:35:40;8.60;;;2.55;;
2211;SDS011;48849;48.758;9.158;2023-03-13T03:38:07;4.63;;;2.20;;
2211;SDS011;48849;48.758;9.158;2023-03-13T03:40:34;9.00;;;2.25;;
2211;SDS011;48849;48.758;9.158;2023-03-13T03:43:01;6.07;;;2.65;;
2211;SDS011;48849;48.758;9.158;2023-03-13T03:45:27;5.10;;;2.35;;
2211;SDS011;48849;48.758;9.158;2023-03-13T03:47:54;8.07;;;1.85;;
2211;SDS011;48849;48.758;9.158;2023-03-13T03:50:23;7.07;;;2.10;;
2211;SDS011;48849;48.758;9.158;2023-03-13T03:52:51;3.70;;;2.05;;
2211;SDS011;48849;48.758;9.158;2023-03-13T03:55:18;6.68;;;2.70;;
2211;SDS011;48849;48.758;9.158;2023-03-13T03:57:45;4.80;;;1.92;;
2211;SDS011;48849;48.758;9.158;2023-03-13T04:00:12;3.25;;;1.80;;
2211;SDS011;48849;48.758;9.158;2023-03-13T04:02:40;2.17;;;1.30;;
2211;SDS011;48849;48.758;9.158;2023-03-13T04:05:07;2.13;;;1.30;;
2211;SDS011;48849;48.758;9.158;2023-03-13T04:07:33;3.30;;;1.70;;
2211;SDS011;48849;48.758;9.158;2023-03-13T04:10:01;5.00;;;1.85;;
2211;SDS011;48849;48.758;9.158;2023-03-13T04:12:29;3.65;;;1.80;;
2211;SDS011;48849;48.758;9.158;2023-03-13T04:14:55;2.95;;;1.40;;
2211;SDS011;48849;48.758;9.158;2023-03-13T04:17:22;1.13;;;0.90;;
2211;SDS011;48849;48.758;9.158;2023-03-13T04:19:49;2.38;;;1.15;;
2211;SDS011;48849;48.758;9.158;2023-03-13T04:22:15;2.03;;;1.30;;
2211;SDS011;48849;48.758;9.158;2023-03-13T04:24:42;1.10;;;1.00;;
2211;SDS011;48849;48.758;9.158;2023-03-13T04:27:10;4.30;;;1.10;;
2211;SDS011;48849;48.758;9.158;2023-03-13T04:29:37;1.75;;;1.27;;
2211;SDS011;48849;48.758;9.158;2023-03-13T04:32:04;2.90;;;1.13;;
2211;SDS011;48849;48.758;9.158;2023-03-13T04:34:31;1.23;;;1.13;;
2211;SDS011;48849;48.758;9.158;2023-03-13T04:36:58;1.45;;;0.90;;
2211;SDS011;48849;48.758;9.158;2023-03-13T04:39:25;1.63;;;1.10;;
2211;SDS011;48849;48.758;9.158;2023-03-13T04:41:51;3.28;;;1.05;;
2211;SDS011;48849;48.758;9.158;2023-03-13T04:44:21;4.50;;;0.90;;
2211;SDS011;48849;48.758;9.158;2023-03-13T04:46:48;1.00;;;0.85;;
2211;SDS011;48849;48.758;9.158;2023-03-13T04:49:15;2.25;;;1.08;;
2211;SDS011;48849;48.758;9.158;2023-03-13T04:51:42;1.70;;;1.05;;
2211;SDS011;48849;48.758;9.158;2023-03-13T04:54:10;1.98;;;1.30;;
2211;SDS011;48849;48.758;9.158;2023-03-13T04:56:37;3.53;;;1.05;;
2211;SDS011;48849;48.758;9.158;2023-03-13T04:59:03;1.58;;;1.15;;
2211;SDS011;48849;48.758;9.158;2023-03-13T05:01:31;1.83;;;1.20;;
2211;SDS011;48849;48.758;9.158;2023-03-13T05:03:58;2.35;;;0.93;;
2211;SDS011;48849;48.758;9.158;2023-03-13T05:06:25;4.47;;;1.20;;
2211;SDS011;48849;48.758;9.158;2023-03-13T05:08:51;3.17;;;1.20;;
2211;SDS011;48849;48.758;9.158;2023-03-13T05:11:18;2.42;;;1.10;;
2211;SDS011;48849;48.758;9.158;2023-03-13T05:13:45;1.52;;;0.90;;
2211;SDS011;48849;48.758;9.158;2023-03-13T05:16:11;3.60;;;1.05;;
2211;SDS011;48849;48.758;9.158;2023-03-13T05:18:39;1.35;;;0.88;;
2211;SDS011;48849;48.758;9.158;2023-03-13T05:21:06;1.13;;;1.00;;
2211;SDS011;48849;48.758;9.158;2023-03-13T05:23:33;2.13;;;0.90;;
2211;SDS011;48849;48.758;9.158;2023-03-13T05:26:00;1.08;;;0.98;;
2211;SDS011;48849;48.758;9.158;2023-03-13T05:28:27;2.20;;;1.00;;
2211;SDS011;48849;48.758;9.158;2023-03-13T05:30:53;0.90;;;0.90;;
2211;SDS011;48849;48.758;9.158;2023-03-13T05:33:20;2.00;;;1.25;;
2211;SDS011;48849;48.758;9.158;2023-03-13T05:35:48;1.05;;;0.90;;
2211;SDS011;48849;48.758;9.158;2023-03-13T05:38:15;1.75;;;1.00;;
2211;SDS011;48849;48.758;9.158;2023-03-13T05:40:42;1.25;;;0.80;;
2211;SDS011;48849;48.758;9.158;2023-03-13T05:43:09;1.02;;;0.80;;
2211;SDS011;48849;48.758;9.158;2023-03-13T05:45:35;2.17;;;1.00;;
2211;SDS011;48849;48.758;9.158;2023-03-13T05:48:02;0.98;;;0.90;;
2211;SDS011;48849;48.758;9.158;2023-03-13T05:50:29;1.35;;;0.70;;
2211;SDS011;48849;48.758;9.158;2023-03-13T05:52:57;1.25;;;0.95;;
2211;SDS011;48849;48.758;9.158;2023-03-13T05:55:24;1.30;;;1.20;;
2211;SDS011;48849;48.758;9.158;2023-03-13T05:57:50;1.25;;;0.90;;
2211;SDS011;48849;48.758;9.158;2023-03-13T06:00:17;2.33;;;0.90;;
2211;SDS011;48849;48.758;9.158;2023-03-13T06:02:44;1.10;;;1.00;;
2211;SDS011;48849;48.758;9.158;2023-03-13T06:05:11;1.10;;;0.98;;
2211;SDS011;48849;48.758;9.158;2023-03-13T06:07:38;0.93;;;0.70;;
2211;SDS011;48849;48.758;9.158;2023-03-13T06:10:06;3.03;;;0.93;;
2211;SDS011;48849;48.758;9.158;2023-03-13T06:12:33;0.70;;;0.70;;
2211;SDS011;48849;48.758;9.158;2023-03-13T06:15:00;1.92;;;0.75;;
2211;SDS011;48849;48.758;9.158;2023-03-13T06:17:27;0.80;;;0.80;;
2211;SDS011;48849;48.758;9.158;2023-03-13T06:19:54;1.10;;;0.90;;
2211;SDS011;48849;48.758;9.158;2023-03-13T06:22:20;0.70;;;0.70;;
2211;SDS011;48849;48.758;9.158;2023-03-13T06:24:47;0.60;;;0.60;;
2211;SDS011;48849;48.758;9.158;2023-03-13T06:27:15;1.85;;;0.85;;
2211;SDS011;48849;48.758;9.158;2023-03-13T06:29:42;4.22;;;0.90;;
2211;SDS011;48849;48.758;9.158;2023-03-13T06:32:08;0.80;;;0.80;;
2211;SDS011;48849;48.758;9.158;2023-03-13T06:34:35;0.80;;;0.70;;
2211;SDS011;48849;48.758;9.158;2023-03-13T06:37:02;0.90;;;0.90;;
2211;SDS011;48849;48.758;9.158;2023-03-13T06:39:29;0.95;;;0.82;;
2211;SDS011;48849;48.758;9.158;2023-03-13T06:41:55;1.67;;;0.93;;
2211;SDS011;48849;48.758;9.158;2023-03-13T06:44:24;0.82;;;0.55;;
2211;SDS011;48849;48.758;9.158;2023-03-13T06:46:51;0.80;;;0.80;;
2211;SDS011;48849;48.758;9.158;2023-03-13T06:49:17;0.70;;;0.70;;
2211;SDS011;48849;48.758;9.158;2023-03-13T06:51:44;1.00;;;0.77;;
2211;SDS011;48849;48.758;9.158;2023-03-13T06:54:11;3.47;;;0.88;;
2211;SDS011;48849;48.758;9.158;2023-03-13T06:56:37;2.85;;;0.90;;
2211;SDS011;48849;48.758;9.158;2023-03-13T06:59:04;1.63;;;0.80;;
2211;SDS011;48849;48.758;9.158;2023-03-13T07:01:32;1.77;;;1.13;;
2211;SDS011;48849;48.758;9.158;2023-03-13T07:03:59;0.80;;;0.80;;
2211;SDS011;48849;48.758;9.158;2023-03-13T07:06:25;1.85;;;1.10;;
2211;SDS011;48849;48.758;9.158;2023-03-13T07:08:52;2.65;;;0.70;;
2211;SDS011;48849;48.758;9.158;2023-03-13T07:11:19;1.35;;;1.00;;
2211;SDS011;48849;48.758;9.158;2023-03-13T07:13:45;1.73;;;0.93;;
2211;SDS011;48849;48.758;9.158;2023-03-13T07:16:12;1.00;;;0.90;;
2211;SDS011;48849;48.758;9.158;2023-03-13T07:18:40;1.33;;;0.65;;
2211;SDS011;48849;48.758;9.158;2023-03-13T07:21:08;1.15;;;0.80;;
2211;SDS011;48849;48.758;9.158;2023-03-13T07:23:36;2.15;;;0.80;;
2211;SDS011;48849;48.758;9.158;2023-03-13T07:26:03;1.20;;;0.90;;
2211;SDS011;48849;48.758;9.158;2023-03-13T07:28:31;1.40;;;0.93;;
2211;SDS011;48849;48.758;9.158;2023-03-13T07:31:04;1.27;;;0.80;;
2211;SDS011;48849;48.758;9.158;2023-03-13T07:33:32;1.00;;;0.90;;
2211;SDS011;48849;48.758;9.158;2023-03-13T07:36:00;2.33;;;0.98;;
2211;SDS011;48849;48.758;9.158;2023-03-13T07:38:27;1.73;;;0.67;;
2211;SDS011;48849;48.758;9.158;2023-03-13T07:40:54;1.52;;;1.00;;
2211;SDS011;48849;48.758;9.158;2023-03-13T07:43:22;1.38;;;1.00;;
2211;SDS011;48849;48.758;9.158;2023-03-13T07:45:50;1.45;;;0.95;;
2211;SDS011;48849;48.758;9.158;2023-03-13T07:48:18;0.90;;;0.90;;
2211;SDS011;48849;48.758;9.158;2023-03-13T07:50:46;0.95;;;0.82;;
2211;SDS011;48849;48.758;9.158;2023-03-13T07:53:14;0.80;;;0.80;;
2211;SDS011;48849;48.758;9.158;2023-03-13T07:55:50;2.40;;;1.00;;
2211;SDS011;48849;48.758;9.158;2023-03-13T07:58:21;0.98;;;0.80;;
2211;SDS011;48849;48.758;9.158;2023-03-13T08:00:49;1.35;;;0.90;;
2211;SDS011;48849;48.758;9.158;2023-03-13T08:03:15;1.35;;;1.02;;
2211;SDS011;48849;48.758;9.158;2023-03-13T08:05:42;1.08;;;0.95;;
2211;SDS011;48849;48.758;9.158;2023-03-13T08:08:09;1.13;;;0.93;;
2211;SDS011;48849;48.758;9.158;2023-03-13T08:10:37;1.13;;;0.90;;
2211;SDS011;48849;48.758;9.158;2023-03-13T08:13:04;0.82;;;0.82;;
2211;SDS011;48849;48.758;9.158;2023-03-13T08:15:31;2.58;;;1.38;;
2211;SDS011;48849;48.758;9.158;2023-03-13T08:17:57;0.90;;;0.90;;
2211;SDS011;48849;48.758;9.158;2023-03-13T08:20:24;2.85;;;1.30;;
2211;SDS011;48849;48.758;9.158;2023-03-13T08:22:51;1.10;;;1.00;;
2211;SDS011;48849;48.758;9.158;2023-03-13T08:25:19;2.13;;;0.90;;
2211;SDS011;48849;48.758;9.158;2023-03-13T08:27:47;2.33;;;1.10;;
2211;SDS011;48849;48.758;9.158;2023-03-13T08:30:14;1.80;;;0.98;;
2211;SDS011;48849;48.758;9.158;2023-03-13T08:32:41;1.58;;;1.20;;
2211;SDS011;48849;48.758;9.158;2023-03-13T08:35:08;2.08;;;0.90;;
2211;SDS011;48849;48.758;9.158;2023-03-13T08:37:35;1.00;;;0.90;;
2211;SDS011;48849;48.758;9.158;2023-03-13T08:40:01;2.20;;;1.40;;
2211;SDS011;48849;48.758;9.158;2023-03-13T08:42:34;1.67;;;1.30;;
2211;SDS011;48849;48.758;9.158;2023-03-13T08:45:03;1.83;;;1.10;;
2211;SDS011;48849;48.758;9.158;2023-03-13T08:47:30;1.33;;;1.10;;
2211;SDS011;48849;48.758;9.158;2023-03-13T08:49:57;1.02;;;0.93;;
2211;SDS011;48849;48.758;9.158;2023-03-13T08:52:24;2.22;;;1.00;;
2211;SDS011;48849;48.758;9.158;2023-03-13T08:54:51;2.60;;;1.42;;
2211;SDS011;48849;48.758;9.158;2023-03-13T08:57:18;1.25;;;1.15;;
2211;SDS011;48849;48.758;9.158;2023-03-13T08:59:44;1.48;;;1.30;;
2211;SDS011;48849;48.758;9.158;2023-03-13T09:02:12;2.15;;;1.20;;
2211;SDS011;48849;48.758;9.158;2023-03-13T09:04:43;2.15;;;1.20;;
2211;SDS011;48849;48.758;9.158;2023-03-13T09:07:11;1.40;;;1.30;;
2211;SDS011;48849;48.758;9.158;2023-03-13T09:09:38;2.50;;;1.50;;
2211;SDS011;48849;48.758;9.158;2023-03-13T09:12:05;1.50;;;1.00;;
2211;SDS011;48849;48.758;9.158;2023-03-13T09:14:32;1.38;;;1.27;;
2211;SDS011;48849;48.758;9.158;2023-03-13T09:16:58;1.65;;;1.20;;
2211;SDS011;48849;48.758;9.158;2023-03-13T09:19:26;3.15;;;1.27;;
2211;SDS011;48849;48.758;9.158;2023-03-13T09:21:53;2.35;;;1.25;;
2211;SDS011;48849;48.758;9.158;2023-03-13T09:24:20;2.30;;;0.98;;
2211;SDS011;48849;48.758;9.158;2023-03-13T09:26:46;2.00;;;1.05;;
2211;SDS011;48849;48.758;9.158;2023-03-13T09:29:13;1.88;;;1.25;;
2211;SDS011;48849;48.758;9.158;2023-03-13T09:31:40;1.25;;;1.15;;
2211;SDS011;48849;48.758;9.158;2023-03-13T09:34:06;1.50;;;1.40;;
2211;SDS011;48849;48.758;9.158;2023-03-13T09:36:34;2.55;;;1.02;;
2211;SDS011;48849;48.758;9.158;2023-03-13T09:39:01;1.20;;;1.00;;
2211;SDS011;48849;48.758;9.158;2023-03-13T09:41:30;1.92;;;1.20;;
2211;SDS011;48849;48.758;9.158;2023-03-13T09:44:02;3.10;;;1.50;;
2211;SDS011;48849;48.758;9.158;2023-03-13T09:46:36;1.73;;;1.23;;
2211;SDS011;48849;48.758;9.158;2023-03-13T09:49:08;2.70;;;1.38;;
2211;SDS011;48849;48.758;9.158;2023-03-13T09:51:41;1.83;;;1.30;;
2211;SDS011;48849;48.758;9.158;2023-03-13T09:54:16;2.83;;;1.60;;
2211;SDS011;48849;48.758;9.158;2023-03-13T09:56:49;2.05;;;1.25;;
2211;SDS011;48849;48.758;9.158;2023-03-13T09:59:21;1.92;;;1.42;;
2211;SDS011;48849;48.758;9.158;2023-03-13T10:01:54;1.55;;;1.40;;
2211;SDS011;48849;48.758;9.158;2023-03-13T10:04:26;1.95;;;1.40;;
2211;SDS011;48849;48.758;9.158;2023-03-13T10:06:57;2.05;;;1.65;;
2211;SDS011;48849;48.758;9.158;2023-03-13T10:09:25;1.40;;;1.17;;
2211;SDS011;48849;48.758;9.158;2023-03-13T10:11:57;2.42;;;1.50;;
2211;SDS011;48849;48.758;9.158;2023-03-13T10:14:32;3.28;;;1.55;;
2211;SDS011;48849;48.758;9.158;2023-03-13T10:17:08;1.75;;;1.55;;
2211;SDS011;48849;48.758;9.158;2023-03-13T10:19:42;1.88;;;1.73;;
2211;SDS011;48849;48.758;9.158;2023-03-13T10:22:14;2.55;;;2.05;;
2211;SDS011;48849;48.758;9.158;2023-03-13T10:24:45;6.70;;;1.88;;
2211;SDS011;48849;48.758;9.158;2023-03-13T10:27:15;3.65;;;2.10;;
2211;SDS011;48849;48.758;9.158;2023-03-13T10:29:42;1.83;;;1.65;;
2211;SDS011;48849;48.758;9.158;2023-03-13T10:32:10;2.33;;;1.85;;
2211;SDS011;48849;48.758;9.158;2023-03-13T10:34:47;2.90;;;1.90;;
2211;SDS011;48849;48.758;9.158;2023-03-13T10:37:20;2.30;;;2.10;;
2211;SDS011;48849;48.758;9.158;2023-03-13T10:39:49;4.20;;;2.05;;
2211;SDS011;48849;48.758;9.158;2023-03-13T10:42:18;2.22;;;1.90;;
2211;SDS011;48849;48.758;9.158;2023-03-13T10:44:48;6.68;;;2.08;;
2211;SDS011;48849;48.758;9.158;2023-03-13T10:47:20;2.90;;;1.83;;
2211;SDS011;48849;48.758;9.158;2023-03-13T10:49:47;3.10;;;2.10;;
2211;SDS011;48849;48.758;9.158;2023-03-13T10:52:28;3.53;;;2.08;;
2211;SDS011;48849;48.758;9.158;2023-03-13T10:54:58;3.20;;;1.63;;
2211;SDS011;48849;48.758;9.158;2023-03-13T10:57:28;3.00;;;2.03;;
2211;SDS011;48849;48.758;9.158;2023-03-13T10:59:56;3.22;;;1.98;;
2211;SDS011;48849;48.758;9.158;2023-03-13T11:02:25;2.08;;;1.73;;
2211;SDS011;48849;48.758;9.158;2023-03-13T11:04:53;3.28;;;2.05;;
2211;SDS011;48849;48.758;9.158;2023-03-13T11:07:24;5.78;;;2.38;;
2211;SDS011;48849;48.758;9.158;2023-03-13T11:09:58;6.13;;;1.95;;
2211;SDS011;48849;48.758;9.158;2023-03-13T11:12:27;2.92;;;2.28;;
2211;SDS011;48849;48.758;9.158;2023-03-13T11:14:58;2.67;;;1.80;;
2211;SDS011;48849;48.758;9.158;2023-03-13T11:17:28;2.70;;;1.70;;
2211;SDS011;48849;48.758;9.158;2023-03-13T11:20:07;3.95;;;2.00;;
2211;SDS011;48849;48.758;9.158;2023-03-13T11:22:55;1.92;;;1.73;;
2211;SDS011;48849;48.758;9.158;2023-03-13T11:25:34;5.05;;;2.00;;
2211;SDS011;48849;48.758;9.158;2023-03-13T11:28:13;2.85;;;1.83;;
2211;SDS011;48849;48.758;9.158;2023-03-13T11:30:56;2.35;;;2.15;;
2211;SDS011;48849;48.758;9.158;2023-03-13T11:33:35;1.90;;;1.75;;
2211;SDS011;48849;48.758;9.158;2023-03-13T11:36:08;3.25;;;2.13;;
2211;SDS011;48849;48.758;9.158;2023-03-13T11:38:44;1.90;;;1.70;;
2211;SDS011;48849;48.758;9.158;2023-03-13T11:41:26;2.88;;;2.00;;
2211;SDS011;48849;48.758;9.158;2023-03-13T11:44:11;5.18;;;1.67;;
2211;SDS011;48849;48.758;9.158;2023-03-13T11:46:58;2.25;;;1.88;;
2211;SDS011;48849;48.758;9.158;2023-03-13T11:49:43;5.40;;;2.75;;
2211;SDS011;48849;48.758;9.158;2023-03-13T11:52:23;2.58;;;1.60;;
2211;SDS011;48849;48.758;9.158;2023-03-13T11:55:20;3.88;;;2.15;;
2211;SDS011;48849;48.758;9.158;2023-03-13T11:57:58;1.90;;;1.70;;
2211;SDS011;48849;48.758;9.158;2023-03-13T12:00:35;3.40;;;2.00;;
2211;SDS011;48849;48.758;9.158;2023-03-13T12:03:05;2.38;;;1.73;;
2211;SDS011;48849;48.758;9.158;2023-03-13T12:05:40;2.10;;;1.90;;
2211;SDS011;48849;48.758;9.158;2023-03-13T12:08:11;2.20;;;1.65;;
2211;SDS011;48849;48.758;9.158;2023-03-13T12:10:43;2.38;;;1.52;;
2211;SDS011;48849;48.758;9.158;2023-03-13T12:13:17;1.70;;;1.40;;
2211;SDS011;48849;48.758;9.158;2023-03-13T12:15:46;1.70;;;1.30;;
2211;SDS011;48849;48.758;9.158;2023-03-13T12:18:16;1.50;;;1.40;;
2211;SDS011;48849;48.758;9.158;2023-03-13T12:20:50;2.67;;;1.45;;
2211;SDS011;48849;48.758;9.158;2023-03-13T12:23:22;5.47;;;1.93;;
2211;SDS011;48849;48.758;9.158;2023-03-13T12:25:54;2.92;;;1.60;;
2211;SDS011;48849;48.758;9.158;2023-03-13T12:28:31;1.57;;;1.20;;
2211;SDS011;48849;48.758;9.158;2023-03-13T12:31:05;2.70;;;1.30;;
2211;SDS011;48849;48.758;9.158;2023-03-13T12:33:50;1.92;;;1.30;;
2211;SDS011;48849;48.758;9.158;2023-03-13T12:36:21;1.98;;;1.50;;
2211;SDS011;48849;48.758;9.158;2023-03-13T12:38:54;2.93;;;1.47;;
2211;SDS011;48849;48.758;9.158;2023-03-13T12:41:24;2.08;;;1.27;;
2211;SDS011;48849;48.758;9.158;2023-03-13T12:43:56;3.88;;;1.20;;
2211;SDS011;48849;48.758;9.158;2023-03-13T12:46:33;2.00;;;1.42;;
2211;SDS011;48849;48.758;9.158;2023-03-13T12:49:39;4.10;;;1.35;;
2211;SDS011;48849;48.758;9.158;2023-03-13T12:52:38;6.88;;;1.48;;
2211;SDS011;48849;48.758;9.158;2023-03-13T12:55:22;4.10;;;1.15;;
2211;SDS011;48849;48.758;9.158;2023-03-13T12:58:09;2.17;;;1.15;;
2211;SDS011;48849;48.758;9.158;2023-03-13T13:00:52;1.92;;;1.42;;
2211;SDS011;48849;48.758;9.158;2023-03-13T13:03:23;1.90;;;1.00;;
2211;SDS011;48849;48.758;9.158;2023-03-13T13:05:59;1.77;;;1.30;;
2211;SDS011;48849;48.758;9.158;2023-03-13T13:08:33;3.67;;;1.90;;
2211;SDS011;48849;48.758;9.158;2023-03-13T13:17:14;2.58;;;1.73;;
2211;SDS011;48849;48.758;9.158;2023-03-13T13:19:45;1.40;;;1.30;;
2211;SDS011;48849;48.758;9.158;2023-03-13T13:25:31;2.10;;;1.40;;
2211;SDS011;48849;48.758;9.158;2023-03-13T13:28:10;1.98;;;1.02;;
2211;SDS011;48849;48.758;9.158;2023-03-13T13:30:48;1.48;;;1.00;;
2211;SDS011;48849;48.758;9.158;2023-03-13T13:36:26;1.23;;;0.90;;
2211;SDS011;48849;48.758;9.158;2023-03-13T13:38:55;3.17;;;1.17;;
2211;SDS011;48849;48.758;9.158;2023-03-13T13:44:19;1.83;;;0.98;;
2211;SDS011;48849;48.758;9.158;2023-03-13T13:46:47;1.92;;;1.10;;
2211;SDS011;48849;48.758;9.158;2023-03-13T13:49:17;2.47;;;1.30;;
2211;SDS011;48849;48.758;9.158;2023-03-13T13:54:53;2.88;;;1.10;;
2211;SDS011;48849;48.758;9.158;2023-03-13T13:57:22;2.25;;;1.20;;
2211;SDS011;48849;48.758;9.158;2023-03-13T13:59:51;6.68;;;0.93;;
2211;SDS011;48849;48.758;9.158;2023-03-13T14:02:21;1.95;;;0.90;;
2211;SDS011;48849;48.758;9.158;2023-03-13T14:05:00;1.38;;;0.88;;
2211;SDS011;48849;48.758;9.158;2023-03-13T14:07:31;1.88;;;1.30;;
2211;SDS011;48849;48.758;9.158;2023-03-13T14:10:14;7.20;;;1.60;;
2211;SDS011;48849;48.758;9.158;2023-03-13T14:12:50;2.17;;;1.50;;
2211;SDS011;48849;48.758;9.158;2023-03-13T14:15:20;2.72;;;2.00;;
2211;SDS011;48849;48.758;9.158;2023-03-13T14:17:49;2.25;;;1.80;;
2211;SDS011;48849;48.758;9.158;2023-03-13T14:20:23;1.45;;;1.33;;
2211;SDS011;48849;48.758;9.158;2023-03-13T14:22:52;4.25;;;2.10;;
2211;SDS011;48849;48.758;9.158;2023-03-13T14:25:20;2.70;;;1.60;;
2211;SDS011;48849;48.758;9.158;2023-03-13T14:27:48;1.75;;;1.48;;
2211;SDS011;48849;48.758;9.158;2023-03-13T14:30:16;3.25;;;1.27;;
2211;SDS011;48849;48.758;9.158;2023-03-13T14:32:44;3.97;;;1.38;;
2211;SDS011;48849;48.758;9.158;2023-03-13T14:35:13;4.13;;;1.20;;
2211;SDS011;48849;48.758;9.158;2023-03-13T14:37:43;3.00;;;1.20;;
2211;SDS011;48849;48.758;9.158;2023-03-13T14:40:18;4.13;;;1.30;;
2211;SDS011;48849;48.758;9.158;2023-03-13T14:42:53;6.82;;;4.95;;
2211;SDS011;48849;48.758;9.158;2023-03-13T14:45:23;7.30;;;3.38;;
2211;SDS011;48849;48.758;9.158;2023-03-13T14:47:52;2.15;;;0.98;;
2211;SDS011;48849;48.758;9.158;2023-03-13T14:50:21;2.42;;;1.00;;
2211;SDS011;48849;48.758;9.158;2023-03-13T14:52:51;1.70;;;1.23;;
2211;SDS011;48849;48.758;9.158;2023-03-13T14:55:31;5.00;;;1.05;;
2211;SDS011;48849;48.758;9.158;2023-03-13T14:58:00;3.25;;;2.25;;
2211;SDS011;48849;48.758;9.158;2023-03-13T15:00:36;4.20;;;2.65;;
2211;SDS011;48849;48.758;9.158;2023-03-13T15:03:26;3.42;;;1.73;;
2211;SDS011;48849;48.758;9.158;2023-03-13T15:06:02;3.92;;;1.40;;
2211;SDS011;48849;48.758;9.158;2023-03-13T15:08:33;2.85;;;1.88;;
2211;SDS011;48849;48.758;9.158;2023-03-13T15:11:00;2.72;;;1.40;;
2211;SDS011;48849;48.758;9.158;2023-03-13T15:13:32;2.17;;;1.40;;
2211;SDS011;48849;48.758;9.158;2023-03-13T15:16:00;1.90;;;1.17;;
2211;SDS011;48849;48.758;9.158;2023-03-13T15:18:28;2.15;;;1.27;;
2211;SDS011;48849;48.758;9.158;2023-03-13T15:20:56;1.60;;;1.27;;
2211;SDS011;48849;48.758;9.158;2023-03-13T15:23:24;4.68;;;1.52;;
2211;SDS011;48849;48.758;9.158;2023-03-13T15:25:53;2.00;;;1.27;;
2211;SDS011;48849;48.758;9.158;2023-03-13T15:28:20;1.92;;;1.15;;
2211;SDS011;48849;48.758;9.158;2023-03-13T15:30:49;4.28;;;1.85;;
2211;SDS011;48849;48.758;9.158;2023-03-13T15:33:17;1.83;;;1.20;;